createdAt,value
2022-09-20T00:00:03.527Z,50.27
2022-09-20T00:01:03.467Z,49.63
2022-09-20T00:02:03.462Z,51.40
2022-09-20T00:03:03.421Z,52.85
2022-09-20T00:04:03.493Z,53.50
2022-09-20T00:05:03.515Z,54.79
2022-09-20T00:06:03.515Z,52.53
2022-09-20T00:07:03.392Z,54.95
2022-09-20T00:08:03.474Z,53.98
2022-09-20T00:09:03.494Z,51.08
2022-09-20T00:10:03.376Z,50.60
2022-09-20T00:11:03.416Z,50.76
2022-09-20T00:12:03.376Z,51.88
2022-09-20T00:13:03.457Z,49.95
2022-09-20T00:14:03.355Z,49.79
2022-09-20T00:15:03.581Z,52.05
2022-09-20T00:16:03.352Z,51.88
2022-09-20T00:17:03.396Z,54.95
2022-09-20T00:18:03.307Z,51.40
2022-09-20T00:19:03.260Z,53.01
2022-09-20T00:20:03.245Z,51.88
2022-09-20T00:21:03.300Z,52.05
2022-09-20T00:22:03.254Z,52.37
2022-09-20T00:23:03.255Z,51.88
2022-09-20T00:24:03.264Z,49.63
2022-09-20T00:25:03.349Z,49.47
2022-09-20T00:26:03.280Z,50.76
2022-09-20T00:27:03.383Z,50.92
2022-09-20T00:28:03.272Z,51.24
2022-09-20T00:29:03.311Z,49.31
2022-09-20T00:30:03.274Z,49.63
2022-09-20T00:31:03.277Z,53.66
2022-09-20T00:32:03.370Z,49.63
2022-09-20T00:33:03.290Z,48.98
2022-09-20T00:34:03.263Z,53.66
2022-09-20T00:35:03.227Z,52.37
2022-09-20T00:36:03.232Z,49.95
2022-09-20T00:37:03.303Z,52.37
2022-09-20T00:38:03.190Z,50.76
2022-09-20T00:39:03.101Z,49.47
2022-09-20T00:40:03.217Z,51.24
2022-09-20T00:41:03.174Z,49.95
2022-09-20T00:42:03.253Z,49.15
2022-09-20T00:43:03.060Z,50.43
2022-09-20T00:44:04.221Z,50.43
2022-09-20T00:45:03.156Z,50.11
2022-09-20T00:46:03.200Z,51.72
2022-09-20T00:47:03.165Z,49.31
2022-09-20T00:48:03.143Z,49.31
2022-09-20T00:49:03.169Z,49.79
2022-09-20T00:50:03.168Z,51.40
2022-09-20T00:51:03.122Z,51.24
2022-09-20T00:52:03.150Z,50.43
2022-09-20T00:53:03.055Z,49.47
2022-09-20T00:54:02.983Z,49.31
2022-09-20T00:55:03.390Z,52.37
2022-09-20T00:56:02.985Z,52.05
2022-09-20T00:57:02.980Z,52.05
2022-09-20T00:58:02.996Z,50.27
2022-09-20T00:59:02.943Z,51.24
2022-09-20T01:00:02.983Z,50.92
2022-09-20T01:01:03.077Z,49.47
2022-09-20T01:02:03.004Z,48.98
2022-09-20T01:03:02.957Z,51.08
2022-09-20T01:04:03.035Z,50.27
2022-09-20T01:05:03.066Z,49.95
2022-09-20T01:06:02.990Z,48.98
2022-09-20T01:07:02.990Z,49.31
2022-09-20T01:08:02.966Z,52.85
2022-09-20T01:09:02.970Z,49.95
2022-09-20T01:10:02.968Z,48.82
2022-09-20T01:11:03.041Z,49.15
2022-09-20T01:12:02.974Z,49.15
2022-09-20T01:13:03.020Z,49.15
2022-09-20T01:14:02.930Z,49.63
2022-09-20T01:15:02.901Z,50.27
2022-09-20T01:16:02.929Z,49.47
2022-09-20T01:17:02.852Z,50.43
2022-09-20T01:18:02.922Z,48.82
2022-09-20T01:19:02.850Z,49.63
2022-09-20T01:20:02.925Z,49.47
2022-09-20T01:21:02.889Z,49.47
2022-09-20T01:22:02.944Z,49.15
2022-09-20T01:23:02.856Z,49.15
2022-09-20T01:24:02.889Z,50.43
2022-09-20T01:25:02.891Z,49.63
2022-09-20T01:26:02.887Z,48.50
2022-09-20T01:27:02.902Z,49.79
2022-09-20T01:28:02.833Z,48.98
2022-09-20T01:29:02.897Z,48.66
2022-09-20T01:30:02.820Z,49.79
2022-09-20T01:31:02.813Z,49.95
2022-09-20T01:32:02.851Z,51.56
2022-09-20T01:33:02.787Z,50.92
2022-09-20T01:34:02.701Z,50.60
2022-09-20T01:35:02.824Z,50.27
2022-09-20T01:36:02.879Z,50.43
2022-09-20T01:37:02.819Z,50.43
2022-09-20T01:38:02.878Z,50.43
2022-09-20T01:39:02.762Z,49.63
2022-09-20T01:40:02.802Z,49.95
2022-09-20T01:41:02.853Z,49.95
2022-09-20T01:42:02.727Z,52.69
2022-09-20T01:43:02.712Z,53.50
2022-09-20T01:44:02.757Z,52.37
2022-09-20T01:45:02.726Z,50.76
2022-09-20T01:46:02.773Z,50.43
2022-09-20T01:47:02.701Z,50.92
2022-09-20T01:48:02.617Z,49.63
2022-09-20T01:49:02.685Z,50.43
2022-09-20T01:50:02.715Z,51.08
2022-09-20T01:51:02.582Z,51.40
2022-09-20T01:52:03.273Z,50.27
2022-09-20T01:53:02.659Z,48.66
2022-09-20T01:54:02.771Z,50.60
2022-09-20T01:55:02.663Z,49.79
2022-09-20T01:56:02.671Z,50.11
2022-09-20T01:57:02.684Z,49.95
2022-09-20T01:58:02.632Z,51.40
2022-09-20T01:59:22.689Z,50.43
2022-09-20T02:00:04.622Z,50.92
2022-09-20T02:01:02.646Z,53.33
2022-09-20T02:02:02.664Z,53.50
2022-09-20T02:03:02.677Z,52.53
2022-09-20T02:04:02.596Z,50.43
2022-09-20T02:05:02.583Z,51.40
2022-09-20T02:06:02.468Z,50.92
2022-09-20T02:07:02.579Z,50.60
2022-09-20T02:08:02.492Z,51.08
2022-09-20T02:09:02.522Z,50.92
2022-09-20T02:10:02.533Z,50.60
2022-09-20T02:11:02.607Z,52.53
2022-09-20T02:12:02.574Z,52.69
2022-09-20T02:13:02.561Z,51.40
2022-09-20T02:14:02.539Z,50.11
2022-09-20T02:15:02.507Z,49.95
2022-09-20T02:16:02.654Z,52.05
2022-09-20T02:17:02.606Z,54.46
2022-09-20T02:18:02.531Z,52.21
2022-09-20T02:19:02.422Z,52.53
2022-09-20T02:20:02.382Z,52.21
2022-09-20T02:21:02.462Z,51.40
2022-09-20T02:22:02.619Z,52.05
2022-09-20T02:23:02.524Z,51.72
2022-09-20T02:24:02.451Z,49.79
2022-09-20T02:25:02.439Z,53.50
2022-09-20T02:26:02.452Z,54.62
2022-09-20T02:27:02.504Z,52.21
2022-09-20T02:28:02.471Z,52.21
2022-09-20T02:29:02.448Z,51.40
2022-09-20T02:30:02.483Z,49.79
2022-09-20T02:31:02.383Z,50.11
2022-09-20T02:32:02.450Z,52.05
2022-09-20T02:33:02.552Z,52.05
2022-09-20T02:34:02.297Z,50.76
2022-09-20T02:35:02.296Z,50.11
2022-09-20T02:36:02.401Z,51.08
2022-09-20T02:37:02.287Z,49.47
2022-09-20T02:38:02.385Z,53.33
2022-09-20T02:39:02.362Z,54.46
2022-09-20T02:40:02.412Z,52.21
2022-09-20T02:41:02.338Z,53.33
2022-09-20T02:42:02.301Z,50.76
2022-09-20T02:43:03.397Z,51.72
2022-09-20T02:44:02.314Z,53.98
2022-09-20T02:45:02.392Z,52.69
2022-09-20T02:46:02.351Z,50.92
2022-09-20T02:47:02.372Z,53.01
2022-09-20T02:48:02.332Z,51.88
2022-09-20T02:49:02.322Z,52.21
2022-09-20T02:50:02.265Z,51.24
2022-09-20T02:51:02.182Z,52.37
2022-09-20T02:52:02.182Z,51.24
2022-09-20T02:53:02.243Z,51.88
2022-09-20T02:54:02.225Z,52.69
2022-09-20T02:55:03.459Z,51.24
2022-09-20T02:56:02.235Z,52.21
2022-09-20T02:57:02.281Z,52.05
2022-09-20T02:58:02.224Z,51.88
2022-09-20T02:59:02.249Z,49.95
2022-09-20T03:00:02.247Z,51.40
2022-09-20T03:01:02.206Z,51.24
2022-09-20T03:02:02.262Z,51.88
2022-09-20T03:03:02.170Z,52.85
2022-09-20T03:04:02.148Z,53.50
2022-09-20T03:05:02.581Z,53.82
2022-09-20T03:06:03.184Z,53.50
2022-09-20T03:07:02.135Z,51.40
2022-09-20T03:08:03.194Z,51.40
2022-09-20T03:09:03.088Z,51.56
2022-09-20T03:10:02.076Z,55.43
2022-09-20T03:11:02.111Z,53.17
2022-09-20T03:12:02.077Z,54.62
2022-09-20T03:13:02.049Z,55.75
2022-09-20T03:14:02.016Z,53.66
2022-09-20T03:15:02.029Z,53.01
2022-09-20T03:16:02.050Z,53.01
2022-09-20T03:17:02.193Z,52.69
2022-09-20T03:18:02.088Z,50.43
2022-09-20T03:19:02.071Z,52.85
2022-09-20T03:20:02.072Z,53.01
2022-09-20T03:21:02.127Z,52.53
2022-09-20T03:22:02.078Z,54.95
2022-09-20T03:23:02.066Z,52.69
2022-09-20T03:24:02.010Z,53.82
2022-09-20T03:25:02.065Z,53.01
2022-09-20T03:26:02.064Z,52.69
2022-09-20T03:27:02.220Z,52.85
2022-09-20T03:28:01.910Z,53.01
2022-09-20T03:29:02.913Z,52.69
2022-09-20T03:30:01.925Z,52.37
2022-09-20T03:31:02.069Z,52.85
2022-09-20T03:32:02.062Z,52.53
2022-09-20T03:33:02.025Z,52.69
2022-09-20T03:34:01.940Z,53.50
2022-09-20T03:35:01.972Z,52.69
2022-09-20T03:36:01.935Z,54.14
2022-09-20T03:37:01.936Z,54.46
2022-09-20T03:38:01.967Z,53.66
2022-09-20T03:39:01.939Z,53.33
2022-09-20T03:40:01.995Z,52.05
2022-09-20T03:41:01.895Z,52.05
2022-09-20T03:42:01.900Z,52.53
2022-09-20T03:43:01.919Z,53.98
2022-09-20T03:44:01.873Z,54.95
2022-09-20T03:45:01.842Z,54.30
2022-09-20T03:46:01.823Z,54.62
2022-09-20T03:47:01.884Z,53.17
2022-09-20T03:48:01.905Z,54.46
2022-09-20T03:49:01.914Z,53.98
2022-09-20T03:50:01.950Z,57.69
2022-09-20T03:51:01.858Z,53.66
2022-09-20T03:52:02.821Z,53.50
2022-09-20T03:53:01.844Z,51.08
2022-09-20T03:54:01.786Z,53.33
2022-09-20T03:55:01.848Z,54.46
2022-09-20T03:56:01.847Z,54.14
2022-09-20T03:57:01.809Z,54.79
2022-09-20T03:58:04.732Z,54.79
2022-09-20T03:59:02.795Z,53.50
2022-09-20T04:00:01.721Z,53.01
2022-09-20T04:01:01.849Z,53.33
2022-09-20T04:02:01.725Z,53.01
2022-09-20T04:03:01.724Z,52.53
2022-09-20T04:04:01.687Z,53.82
2022-09-20T04:05:01.785Z,53.01
2022-09-20T04:06:01.728Z,52.53
2022-09-20T04:07:01.785Z,53.82
2022-09-20T04:08:01.737Z,52.53
2022-09-20T04:09:01.718Z,53.98
2022-09-20T04:10:01.963Z,53.66
2022-09-20T04:11:01.696Z,53.01
2022-09-20T04:12:01.721Z,53.66
2022-09-20T04:13:01.751Z,53.17
2022-09-20T04:14:01.690Z,54.30
2022-09-20T04:15:01.606Z,55.11
2022-09-20T04:16:01.636Z,53.50
2022-09-20T04:17:01.686Z,53.98
2022-09-20T04:18:01.578Z,55.75
2022-09-20T04:19:01.751Z,54.14
2022-09-20T04:20:01.563Z,53.50
2022-09-20T04:21:01.601Z,54.14
2022-09-20T04:22:02.563Z,55.27
2022-09-20T04:23:01.568Z,53.50
2022-09-20T04:24:01.634Z,54.46
2022-09-20T04:25:01.608Z,54.95
2022-09-20T04:26:01.665Z,55.59
2022-09-20T04:27:01.585Z,55.43
2022-09-20T04:28:01.601Z,54.95
2022-09-20T04:29:01.578Z,57.20
2022-09-20T04:30:01.596Z,55.59
2022-09-20T04:31:01.808Z,56.07
2022-09-20T04:32:01.631Z,57.04
2022-09-20T04:33:01.576Z,56.40
2022-09-20T04:34:01.572Z,55.43
2022-09-20T04:35:01.611Z,54.95
2022-09-20T04:36:01.474Z,54.95
2022-09-20T04:37:01.454Z,56.88
2022-09-20T04:38:01.562Z,57.20
2022-09-20T04:39:01.544Z,57.04
2022-09-20T04:40:01.591Z,55.11
2022-09-20T04:41:01.483Z,56.07
2022-09-20T04:42:01.606Z,55.75
2022-09-20T04:43:01.501Z,54.14
2022-09-20T04:44:01.459Z,55.75
2022-09-20T04:45:01.472Z,54.46
2022-09-20T04:46:01.530Z,56.24
2022-09-20T04:47:01.442Z,56.40
2022-09-20T04:48:01.566Z,58.01
2022-09-20T04:49:01.441Z,59.46
2022-09-20T04:50:01.446Z,57.52
2022-09-20T04:51:01.444Z,54.62
2022-09-20T04:52:01.362Z,56.07
2022-09-20T04:53:01.344Z,57.20
2022-09-20T04:54:01.312Z,57.20
2022-09-20T04:55:01.377Z,56.24
2022-09-20T04:56:01.339Z,54.79
2022-09-20T04:57:01.371Z,54.46
2022-09-20T04:58:01.334Z,56.88
2022-09-20T04:59:01.349Z,56.07
2022-09-20T05:00:01.316Z,56.07
2022-09-20T05:01:01.472Z,54.62
2022-09-20T05:02:01.380Z,57.52
2022-09-20T05:03:01.377Z,57.20
2022-09-20T05:04:01.366Z,60.10
2022-09-20T05:05:01.399Z,57.20
2022-09-20T05:06:01.323Z,58.65
2022-09-20T05:07:01.342Z,57.85
2022-09-20T05:08:01.326Z,57.04
2022-09-20T05:09:01.540Z,58.33
2022-09-20T05:10:01.360Z,58.97
2022-09-20T05:11:01.281Z,58.81
2022-09-20T05:12:01.885Z,57.52
2022-09-20T05:13:01.239Z,57.52
2022-09-20T05:14:01.282Z,57.69
2022-09-20T05:15:01.566Z,57.69
2022-09-20T05:16:01.193Z,57.52
2022-09-20T05:17:01.370Z,57.69
2022-09-20T05:18:01.267Z,58.49
2022-09-20T05:19:01.242Z,59.46
2022-09-20T05:20:01.246Z,58.17
2022-09-20T05:21:01.254Z,58.65
2022-09-20T05:22:01.239Z,60.59
2022-09-20T05:23:01.204Z,61.55
2022-09-20T05:24:01.239Z,59.78
2022-09-20T05:25:01.169Z,61.71
2022-09-20T05:26:01.275Z,61.23
2022-09-20T05:27:01.270Z,60.26
2022-09-20T05:28:01.120Z,57.52
2022-09-20T05:29:01.104Z,59.46
2022-09-20T05:30:04.994Z,58.97
2022-09-20T05:31:02.195Z,59.94
2022-09-20T05:32:01.263Z,60.75
2022-09-20T05:33:01.167Z,61.87
2022-09-20T05:34:01.199Z,61.23
2022-09-20T05:35:01.108Z,60.26
2022-09-20T05:36:01.130Z,60.42
2022-09-20T05:37:01.141Z,60.26
2022-09-20T05:38:01.100Z,59.62
2022-09-20T05:39:03.386Z,58.65
2022-09-20T05:40:01.207Z,60.26
2022-09-20T05:41:01.055Z,58.65
2022-09-20T05:42:01.101Z,59.78
2022-09-20T05:43:01.132Z,59.30
2022-09-20T05:44:01.013Z,59.62
2022-09-20T05:45:00.974Z,60.75
2022-09-20T05:46:01.122Z,57.52
2022-09-20T05:47:00.989Z,59.46
2022-09-20T05:48:01.030Z,58.01
2022-09-20T05:49:01.094Z,56.40
2022-09-20T05:50:01.031Z,56.72
2022-09-20T05:51:03.634Z,57.04
2022-09-20T05:52:01.963Z,57.04
2022-09-20T05:53:00.943Z,58.33
2022-09-20T05:54:00.889Z,59.46
2022-09-20T05:55:00.995Z,59.30
2022-09-20T05:56:00.992Z,58.17
2022-09-20T05:57:00.951Z,57.36
2022-09-20T05:58:01.064Z,58.33
2022-09-20T05:59:01.032Z,58.49
2022-09-20T06:00:00.989Z,59.30
2022-09-20T06:01:01.005Z,58.97
2022-09-20T06:02:01.001Z,56.88
2022-09-20T06:03:00.989Z,58.49
2022-09-20T06:04:00.961Z,58.17
2022-09-20T06:05:00.894Z,57.85
2022-09-20T06:06:00.891Z,57.85
2022-09-20T06:07:00.827Z,57.69
2022-09-20T06:08:00.818Z,56.40
2022-09-20T06:09:00.918Z,56.07
2022-09-20T06:10:00.915Z,58.49
2022-09-20T06:11:00.869Z,57.69
2022-09-20T06:12:00.922Z,58.65
2022-09-20T06:13:00.885Z,57.69
2022-09-20T06:14:00.906Z,55.11
2022-09-20T06:15:00.856Z,58.65
2022-09-20T06:16:00.853Z,57.52
2022-09-20T06:17:00.821Z,56.72
2022-09-20T06:18:00.806Z,58.65
2022-09-20T06:19:00.835Z,57.04
2022-09-20T06:20:01.030Z,54.95
2022-09-20T06:21:00.791Z,54.14
2022-09-20T06:22:03.626Z,53.01
2022-09-20T06:23:01.805Z,54.46
2022-09-20T06:24:00.692Z,53.50
2022-09-20T06:25:00.675Z,57.69
2022-09-20T06:26:00.782Z,56.40
2022-09-20T06:27:00.737Z,55.91
2022-09-20T06:28:00.774Z,56.24
2022-09-20T06:29:00.758Z,57.36
2022-09-20T06:30:00.722Z,57.52
2022-09-20T06:31:00.848Z,57.69
2022-09-20T06:32:00.724Z,57.04
2022-09-20T06:33:00.732Z,57.04
2022-09-20T06:34:00.711Z,55.75
2022-09-20T06:35:00.763Z,57.69
2022-09-20T06:36:00.711Z,55.91
2022-09-20T06:37:00.837Z,57.04
2022-09-20T06:38:00.646Z,53.50
2022-09-20T06:39:00.578Z,54.46
2022-09-20T06:40:00.700Z,56.07
2022-09-20T06:41:00.619Z,55.59
2022-09-20T06:42:00.618Z,56.24
2022-09-20T06:43:00.578Z,54.95
2022-09-20T06:44:00.792Z,55.75
2022-09-20T06:45:00.725Z,53.17
2022-09-20T06:46:00.805Z,53.33
2022-09-20T06:47:00.863Z,55.11
2022-09-20T06:48:00.797Z,56.56
2022-09-20T06:49:00.693Z,52.05
2022-09-20T06:50:00.778Z,53.66
2022-09-20T06:51:00.730Z,53.66
2022-09-20T06:52:00.966Z,54.30
2022-09-20T06:53:00.602Z,53.33
2022-09-20T06:54:00.533Z,55.27
2022-09-20T06:55:00.527Z,56.40
2022-09-20T06:56:00.607Z,53.50
2022-09-20T06:57:00.559Z,53.82
2022-09-20T06:58:00.679Z,55.11
2022-09-20T06:59:00.529Z,57.04
2022-09-20T07:00:00.649Z,56.56
2022-09-20T07:01:00.534Z,54.95
2022-09-20T07:02:00.486Z,55.43
2022-09-20T07:03:00.573Z,54.14
2022-09-20T07:04:00.536Z,55.11
2022-09-20T07:05:00.513Z,55.11
2022-09-20T07:06:00.463Z,57.52
2022-09-20T07:07:00.499Z,57.69
2022-09-20T07:08:00.464Z,52.69
2022-09-20T07:09:00.597Z,53.33
2022-09-20T07:10:00.480Z,52.53
2022-09-20T07:11:00.479Z,52.37
2022-09-20T07:12:00.464Z,54.95
2022-09-20T07:13:00.661Z,55.91
2022-09-20T07:14:00.652Z,54.79
2022-09-20T07:15:00.472Z,53.01
2022-09-20T07:16:00.412Z,54.30
2022-09-20T07:17:00.410Z,54.79
2022-09-20T07:18:00.420Z,55.91
2022-09-20T07:19:00.432Z,53.01
2022-09-20T07:20:00.439Z,57.04
2022-09-20T07:21:00.321Z,54.14
2022-09-20T07:22:00.315Z,53.66
2022-09-20T07:23:00.382Z,55.59
2022-09-20T07:24:00.396Z,53.66
2022-09-20T07:25:00.586Z,56.24
2022-09-20T07:26:00.344Z,53.66
2022-09-20T07:27:00.355Z,55.59
2022-09-20T07:28:00.345Z,54.46
2022-09-20T07:29:00.329Z,55.43
2022-09-20T07:30:00.401Z,56.72
2022-09-20T07:31:00.336Z,57.04
2022-09-20T07:32:00.528Z,56.07
2022-09-20T07:33:00.428Z,54.79
2022-09-20T07:34:00.307Z,56.72
2022-09-20T07:35:00.422Z,54.46
2022-09-20T07:36:00.582Z,54.79
2022-09-20T07:37:00.423Z,57.36
2022-09-20T07:38:00.300Z,56.24
2022-09-20T07:39:01.287Z,55.75
2022-09-20T07:40:00.243Z,56.56
2022-09-20T07:41:00.306Z,57.04
2022-09-20T07:42:00.340Z,57.36
2022-09-20T07:43:00.275Z,57.52
2022-09-20T07:44:00.264Z,56.24
2022-09-20T07:45:00.242Z,57.20
2022-09-20T07:46:00.296Z,57.20
2022-09-20T07:47:00.239Z,57.52
2022-09-20T07:48:00.240Z,53.17
2022-09-20T07:49:00.242Z,53.01
2022-09-20T07:50:00.217Z,56.56
2022-09-20T07:51:00.289Z,56.40
2022-09-20T07:52:00.129Z,54.46
2022-09-20T07:53:00.360Z,55.27
2022-09-20T07:54:00.273Z,57.04
2022-09-20T07:55:00.169Z,58.81
2022-09-20T07:56:00.289Z,58.65
2022-09-20T07:57:00.328Z,53.66
2022-09-20T07:58:00.197Z,56.56
2022-09-20T07:59:00.405Z,59.62
2022-09-20T08:00:00.227Z,57.20
2022-09-20T08:01:00.281Z,60.26
2022-09-20T08:02:00.273Z,56.56
2022-09-20T08:03:00.202Z,58.49
2022-09-20T08:06:45.757Z,58.01
2022-09-20T08:07:45.797Z,56.24
2022-09-20T08:08:45.662Z,56.24
2022-09-20T08:09:45.829Z,56.07
2022-09-20T08:10:45.737Z,57.69
2022-09-20T08:11:45.660Z,56.72
2022-09-20T08:14:47.546Z,54.14
2022-09-20T08:15:45.671Z,54.95
2022-09-20T08:16:45.762Z,56.88
2022-09-20T08:17:45.616Z,55.11
2022-09-20T08:18:45.716Z,56.72
2022-09-20T08:19:45.591Z,54.14
2022-09-20T08:20:45.502Z,53.50
2022-09-20T08:21:45.436Z,56.40
2022-09-20T08:22:56.430Z,54.46
2022-09-20T08:23:46.452Z,56.56
2022-09-20T08:24:45.335Z,57.04
2022-09-20T08:25:45.364Z,56.88
2022-09-20T08:26:45.381Z,53.17
2022-09-20T08:27:45.800Z,51.88
2022-09-20T08:28:45.430Z,57.69
2022-09-20T08:29:45.423Z,53.17
2022-09-20T08:30:45.405Z,52.69
2022-09-20T08:31:45.510Z,58.65
2022-09-20T08:32:45.425Z,54.95
2022-09-20T08:33:45.374Z,60.26
2022-09-20T08:34:49.235Z,57.04
2022-09-20T08:35:46.355Z,54.46
2022-09-20T08:36:45.364Z,54.79
2022-09-20T08:37:45.267Z,55.43
2022-09-20T08:40:02.676Z,56.07
2022-09-20T08:40:47.321Z,52.85
2022-09-20T08:41:45.433Z,52.53
2022-09-20T08:42:45.356Z,54.30
2022-09-20T08:43:45.769Z,53.50
2022-09-20T08:44:46.319Z,55.27
2022-09-20T08:45:45.332Z,54.14
2022-09-20T08:46:45.405Z,51.72
2022-09-20T08:47:45.519Z,54.79
2022-09-20T08:48:45.449Z,54.62
2022-09-20T08:49:46.667Z,54.95
2022-09-20T08:50:46.472Z,57.36
2022-09-20T08:51:48.661Z,56.88
2022-09-20T08:52:46.360Z,53.66
2022-09-20T08:53:49.104Z,57.04
2022-09-20T08:54:46.384Z,55.59
2022-09-20T08:55:45.329Z,55.27
2022-09-20T08:56:45.350Z,58.65
2022-09-20T08:57:45.284Z,58.01
2022-09-20T08:58:45.342Z,56.56
2022-09-20T08:59:45.387Z,55.75
2022-09-20T09:00:45.455Z,56.40
2022-09-20T09:01:45.221Z,56.88
2022-09-20T09:02:45.217Z,54.14
2022-09-20T09:03:45.214Z,55.91
2022-09-20T09:04:45.171Z,56.24
2022-09-20T09:05:45.213Z,57.20
2022-09-20T09:06:45.154Z,55.43
2022-09-20T09:07:45.170Z,54.46
2022-09-20T09:08:45.168Z,55.27
2022-09-20T09:09:45.088Z,57.52
2022-09-20T09:10:45.658Z,57.04
2022-09-20T09:11:46.072Z,57.36
2022-09-20T09:12:48.710Z,56.56
2022-09-20T09:13:46.108Z,55.27
2022-09-20T09:14:45.363Z,59.30
2022-09-20T09:15:45.258Z,56.88
2022-09-20T09:16:45.291Z,54.62
2022-09-20T09:17:45.193Z,56.40
2022-09-20T09:18:45.163Z,56.56
2022-09-20T09:19:45.235Z,56.56
2022-09-20T09:20:45.155Z,55.43
2022-09-20T09:21:45.113Z,55.11
2022-09-20T09:22:45.158Z,56.07
2022-09-20T09:23:45.136Z,57.20
2022-09-20T09:24:45.154Z,54.62
2022-09-20T09:25:45.135Z,56.24
2022-09-20T09:26:45.126Z,53.98
2022-09-20T09:27:45.112Z,57.52
2022-09-20T09:28:45.043Z,54.95
2022-09-20T09:29:45.147Z,59.46
2022-09-20T09:30:45.037Z,57.85
2022-09-20T09:31:45.266Z,58.17
2022-09-20T09:32:45.259Z,57.04
2022-09-20T09:33:45.118Z,56.07
2022-09-20T09:34:45.073Z,55.27
2022-09-20T09:35:45.137Z,55.91
2022-09-20T09:36:45.029Z,55.59
2022-09-20T09:37:45.114Z,57.69
2022-09-20T09:38:45.287Z,58.33
2022-09-20T09:39:44.925Z,57.36
2022-09-20T09:40:44.933Z,56.24
2022-09-20T09:41:44.930Z,57.36
2022-09-20T09:42:44.888Z,53.98
2022-09-20T09:43:44.953Z,56.72
2022-09-20T09:44:44.890Z,58.17
2022-09-20T09:45:44.922Z,58.97
2022-09-20T09:46:44.889Z,57.20
2022-09-20T09:47:44.896Z,57.04
2022-09-20T09:48:44.859Z,57.85
2022-09-20T09:49:44.990Z,57.20
2022-09-20T09:50:44.909Z,57.36
2022-09-20T09:51:44.950Z,56.24
2022-09-20T09:52:45.016Z,55.11
2022-09-20T09:53:44.822Z,56.07
2022-09-20T09:54:45.000Z,57.36
2022-09-20T09:55:45.051Z,57.85
2022-09-20T09:56:44.989Z,57.69
2022-09-20T09:57:44.882Z,57.52
2022-09-20T09:58:44.960Z,56.24
2022-09-20T09:59:44.901Z,56.24
2022-09-20T10:00:45.056Z,56.72
2022-09-20T10:01:44.821Z,54.95
2022-09-20T10:02:45.010Z,57.04
2022-09-20T10:03:44.875Z,59.14
2022-09-20T10:04:44.842Z,58.49
2022-09-20T10:05:44.938Z,54.14
2022-09-20T10:06:46.592Z,57.04
2022-09-20T10:07:44.773Z,54.95
2022-09-20T10:08:44.779Z,58.65
2022-09-20T10:09:44.850Z,58.17
2022-09-20T10:10:44.794Z,55.11
2022-09-20T10:11:44.853Z,57.69
2022-09-20T10:12:44.809Z,56.72
2022-09-20T10:13:44.831Z,57.69
2022-09-20T10:14:44.758Z,54.30
2022-09-20T10:15:44.786Z,54.14
2022-09-20T10:16:44.896Z,57.20
2022-09-20T10:17:44.669Z,56.07
2022-09-20T10:18:44.650Z,54.95
2022-09-20T10:19:44.661Z,56.56
2022-09-20T10:20:44.622Z,53.82
2022-09-20T10:21:45.103Z,58.17
2022-09-20T10:23:00.120Z,57.20
2022-09-20T10:24:02.512Z,57.36
2022-09-20T10:24:51.219Z,58.49
2022-09-20T10:25:46.594Z,55.75
2022-09-20T10:26:44.596Z,55.75
2022-09-20T10:27:44.636Z,55.91
2022-09-20T10:28:44.562Z,54.46
2022-09-20T10:29:44.572Z,53.98
2022-09-20T10:30:44.598Z,59.30
2022-09-20T10:31:44.558Z,57.20
2022-09-20T10:32:44.647Z,58.17
2022-09-20T10:33:44.653Z,56.56
2022-09-20T10:34:44.655Z,57.04
2022-09-20T10:35:44.622Z,58.81
2022-09-20T10:36:44.661Z,52.53
2022-09-20T11:54:16.709Z,54.95
2022-09-20T11:55:16.612Z,56.07
2022-09-20T11:56:16.611Z,56.07
2022-09-20T11:57:16.675Z,57.04
2022-09-20T11:58:17.740Z,56.24
2022-09-20T11:59:16.601Z,54.14
2022-09-20T12:00:16.738Z,52.37
2022-09-20T12:01:16.672Z,55.75
2022-09-20T12:02:16.613Z,54.46
2022-09-20T12:03:16.772Z,54.30
2022-09-20T12:04:33.649Z,55.75
2022-09-20T12:05:18.519Z,54.30
2022-09-20T12:06:16.604Z,53.33
2022-09-20T12:07:18.147Z,55.91
2022-09-20T12:08:17.609Z,52.37
2022-09-20T12:09:16.685Z,53.82
2022-09-20T12:10:16.605Z,53.17
2022-09-20T12:11:16.641Z,53.66
2022-09-20T12:12:16.586Z,53.98
2022-09-20T12:13:16.667Z,56.07
2022-09-20T12:14:16.530Z,58.01
2022-09-20T12:15:16.464Z,54.46
2022-09-20T12:16:16.449Z,55.59
2022-09-20T12:17:16.429Z,55.59
2022-09-20T12:18:16.410Z,53.66
2022-09-20T12:19:16.408Z,54.46
2022-09-20T12:20:19.373Z,56.24
2022-09-20T12:21:17.421Z,56.07
2022-09-20T12:22:16.418Z,53.01
2022-09-20T12:23:16.488Z,55.27
2022-09-20T12:24:16.513Z,54.14
2022-09-20T12:25:16.476Z,56.72
2022-09-20T12:26:16.505Z,54.46
2022-09-20T12:27:16.506Z,55.91
2022-09-20T12:28:16.521Z,53.82
2022-09-20T12:29:16.405Z,55.75
2022-09-20T12:30:16.592Z,57.04
2022-09-20T12:31:16.469Z,56.24
2022-09-20T12:32:16.498Z,55.27
2022-09-20T12:33:16.389Z,54.62
2022-09-20T12:34:16.501Z,55.11
2022-09-20T12:35:16.465Z,54.62
2022-09-20T12:36:16.329Z,55.59
2022-09-20T12:37:16.382Z,53.98
2022-09-20T12:38:16.310Z,57.04
2022-09-20T12:39:21.677Z,55.59
2022-09-20T12:40:18.365Z,54.79
2022-09-20T12:41:16.171Z,52.69
2022-09-20T12:42:19.019Z,53.66
2022-09-20T12:43:16.223Z,57.85
2022-09-20T12:44:16.264Z,56.56
2022-09-20T12:45:16.225Z,54.79
2022-09-20T12:46:16.324Z,58.17
2022-09-20T12:47:16.174Z,56.40
2022-09-20T12:48:16.190Z,56.07
2022-09-20T12:49:16.287Z,54.14
2022-09-20T12:50:16.187Z,54.46
2022-09-20T12:51:16.177Z,51.40
2022-09-20T12:52:16.142Z,55.75
2022-09-20T12:53:16.102Z,53.50
2022-09-20T12:54:16.063Z,53.98
2022-09-20T12:55:16.104Z,56.72
2022-09-20T12:56:16.135Z,54.14
2022-09-20T12:57:16.230Z,53.17
2022-09-20T12:58:16.038Z,55.11
2022-09-20T12:59:15.982Z,54.62
2022-09-20T13:00:16.074Z,53.82
2022-09-20T13:01:16.045Z,56.88
2022-09-20T13:02:16.135Z,58.17
2022-09-20T13:03:16.004Z,56.07
2022-09-20T13:04:15.950Z,57.20
2022-09-20T13:05:15.970Z,57.36
2022-09-20T13:06:16.052Z,56.40
2022-09-20T13:07:16.040Z,57.04
2022-09-20T13:08:16.119Z,56.40
2022-09-20T13:09:16.031Z,57.69
2022-09-20T13:10:16.063Z,55.75
2022-09-20T13:11:16.000Z,56.24
2022-09-20T13:12:15.975Z,55.43
2022-09-20T13:13:16.083Z,57.20
2022-09-20T13:14:15.972Z,58.01
2022-09-20T13:15:15.975Z,56.40
2022-09-20T13:16:15.931Z,57.36
2022-09-20T13:17:15.892Z,57.85
2022-09-20T13:18:15.952Z,57.04
2022-09-20T13:19:15.923Z,57.04
2022-09-20T13:20:15.891Z,57.52
2022-09-20T13:21:16.004Z,59.78
2022-09-20T13:22:15.868Z,59.30
2022-09-20T13:23:15.836Z,57.85
2022-09-20T13:24:16.098Z,58.33
2022-09-20T13:25:16.002Z,55.59
2022-09-20T13:26:16.000Z,57.20
2022-09-20T13:27:19.335Z,58.81
2022-09-20T13:28:20.956Z,55.27
2022-09-20T13:29:16.937Z,57.04
2022-09-20T13:30:15.834Z,58.33
2022-09-20T13:31:15.901Z,57.04
2022-09-20T13:32:15.817Z,55.91
2022-09-20T13:33:15.836Z,57.85
2022-09-20T13:34:15.810Z,57.69
2022-09-20T13:35:15.895Z,57.36
2022-09-20T13:36:15.833Z,57.04
2022-09-20T13:37:15.812Z,59.62
2022-09-20T13:38:16.627Z,60.26
2022-09-20T13:39:15.708Z,60.91
2022-09-20T13:40:15.768Z,59.14
2022-09-20T13:41:15.692Z,57.69
2022-09-20T13:42:15.713Z,56.72
2022-09-20T13:43:23.745Z,57.20
2022-09-20T13:44:17.704Z,56.88
2022-09-20T13:45:15.643Z,53.50
2022-09-20T13:46:15.799Z,53.98
2022-09-20T13:47:15.703Z,54.95
2022-09-20T13:48:15.708Z,56.72
2022-09-20T13:49:15.703Z,56.24
2022-09-20T13:50:15.723Z,55.91
2022-09-20T13:51:15.752Z,54.46
2022-09-20T13:52:15.715Z,57.20
2022-09-20T13:53:33.241Z,55.75
2022-09-20T13:54:17.613Z,57.52
2022-09-20T13:55:15.668Z,54.30
2022-09-20T13:56:15.638Z,55.11
2022-09-20T13:57:16.131Z,53.98
2022-09-20T13:58:15.618Z,54.62
2022-09-20T13:59:19.066Z,55.43
2022-09-20T14:00:16.636Z,55.11
2022-09-20T14:01:15.559Z,54.46
2022-09-20T14:02:15.616Z,52.37
2022-09-20T14:03:15.520Z,55.91
2022-09-20T14:04:15.648Z,54.14
2022-09-20T14:05:15.610Z,56.07
2022-09-20T14:06:15.627Z,53.66
2022-09-20T14:07:15.662Z,53.50
2022-09-20T14:08:15.537Z,56.88
2022-09-20T14:09:16.570Z,56.07
2022-09-20T14:10:16.523Z,53.17
2022-09-20T14:11:15.526Z,54.79
2022-09-20T14:12:15.603Z,52.05
2022-09-20T14:13:15.587Z,54.79
2022-09-20T14:14:18.688Z,54.79